sensor_id;sensor_type;location;lat;lon;timestamp;temperature;humidity
46752;DHT22;32497;48.936;9.270;2023-07-08T00:01:34;20.70;44.20
46752;DHT22;32497;48.936;9.270;2023-07-08T00:06:37;20.70;43.90
46752;DHT22;32497;48.936;9.270;2023-07-08T00:11:38;20.70;44.50
46752;DHT22;32497;48.936;9.270;2023-07-08T00:16:39;20.60;44.40
46752;DHT22;32497;48.936;9.270;2023-07-08T00:21:42;20.50;43.40
46752;DHT22;32497;48.936;9.270;2023-07-08T00:26:43;20.40;43.40
46752;DHT22;32497;48.936;9.270;2023-07-08T00:31:44;20.40;42.80
46752;DHT22;32497;48.936;9.270;2023-07-08T00:36:46;20.40;43.40
46752;DHT22;32497;48.936;9.270;2023-07-08T00:41:48;20.30;43.30
46752;DHT22;32497;48.936;9.270;2023-07-08T00:46:57;20.20;44.00
46752;DHT22;32497;48.936;9.270;2023-07-08T00:52:20;20.20;45.00
46752;DHT22;32497;48.936;9.270;2023-07-08T00:57:23;20.20;45.10
46752;DHT22;32497;48.936;9.270;2023-07-08T01:02:26;20.20;44.40
46752;DHT22;32497;48.936;9.270;2023-07-08T01:07:31;20.20;43.40
46752;DHT22;32497;48.936;9.270;2023-07-08T01:12:35;20.20;43.10
46752;DHT22;32497;48.936;9.270;2023-07-08T01:17:37;20.20;44.50
46752;DHT22;32497;48.936;9.270;2023-07-08T01:22:41;20.10;45.10
46752;DHT22;32497;48.936;9.270;2023-07-08T01:27:45;20.00;45.10
46752;DHT22;32497;48.936;9.270;2023-07-08T01:32:49;20.00;44.90
46752;DHT22;32497;48.936;9.270;2023-07-08T01:37:54;19.90;45.00
46752;DHT22;32497;48.936;9.270;2023-07-08T01:42:58;19.90;44.00
46752;DHT22;32497;48.936;9.270;2023-07-08T01:48:03;19.80;44.00
46752;DHT22;32497;48.936;9.270;2023-07-08T01:53:09;19.70;44.90
46752;DHT22;32497;48.936;9.270;2023-07-08T01:58:11;19.60;45.80
46752;DHT22;32497;48.936;9.270;2023-07-08T02:03:12;19.50;46.30
46752;DHT22;32497;48.936;9.270;2023-07-08T02:08:15;19.50;45.30
46752;DHT22;32497;48.936;9.270;2023-07-08T02:13:16;19.50;46.20
46752;DHT22;32497;48.936;9.270;2023-07-08T02:18:17;19.50;44.90
46752;DHT22;32497;48.936;9.270;2023-07-08T02:23:20;19.30;47.10
46752;DHT22;32497;48.936;9.270;2023-07-08T02:28:21;19.20;47.00
46752;DHT22;32497;48.936;9.270;2023-07-08T02:33:22;19.10;47.00
46752;DHT22;32497;48.936;9.270;2023-07-08T02:38:25;19.00;46.90
46752;DHT22;32497;48.936;9.270;2023-07-08T02:43:26;19.10;46.80
46752;DHT22;32497;48.936;9.270;2023-07-08T02:48:27;19.20;45.60
46752;DHT22;32497;48.936;9.270;2023-07-08T02:53:30;19.10;45.60
46752;DHT22;32497;48.936;9.270;2023-07-08T02:58:31;19.00;46.10
46752;DHT22;32497;48.936;9.270;2023-07-08T03:03:32;18.80;46.90
46752;DHT22;32497;48.936;9.270;2023-07-08T03:08:35;18.80;47.00
46752;DHT22;32497;48.936;9.270;2023-07-08T03:13:36;18.70;48.90
46752;DHT22;32497;48.936;9.270;2023-07-08T03:18:38;18.70;48.90
46752;DHT22;32497;48.936;9.270;2023-07-08T03:23:41;18.60;49.80
46752;DHT22;32497;48.936;9.270;2023-07-08T03:28:42;18.40;49.30
46752;DHT22;32497;48.936;9.270;2023-07-08T03:33:44;18.40;47.80
46752;DHT22;32497;48.936;9.270;2023-07-08T03:38:46;18.60;46.90
46752;DHT22;32497;48.936;9.270;2023-07-08T03:43:48;18.70;47.60
46752;DHT22;32497;48.936;9.270;2023-07-08T03:48:49;18.80;47.10
46752;DHT22;32497;48.936;9.270;2023-07-08T03:53:52;18.90;46.90
46752;DHT22;32497;48.936;9.270;2023-07-08T03:58:53;18.90;47.50
46752;DHT22;32497;48.936;9.270;2023-07-08T04:03:58;18.70;47.50
46752;DHT22;32497;48.936;9.270;2023-07-08T04:09:00;18.90;47.30
46752;DHT22;32497;48.936;9.270;2023-07-08T04:14:01;18.90;49.60
46752;DHT22;32497;48.936;9.270;2023-07-08T04:19:02;18.90;50.60
46752;DHT22;32497;48.936;9.270;2023-07-08T04:24:05;18.90;53.00
46752;DHT22;32497;48.936;9.270;2023-07-08T04:29:10;18.70;50.00
46752;DHT22;32497;48.936;9.270;2023-07-08T04:34:11;18.70;50.60
46752;DHT22;32497;48.936;9.270;2023-07-08T04:39:14;18.90;51.60
46752;DHT22;32497;48.936;9.270;2023-07-08T04:44:15;18.90;48.60
46752;DHT22;32497;48.936;9.270;2023-07-08T04:49:17;19.10;48.70
46752;DHT22;32497;48.936;9.270;2023-07-08T04:54:19;19.20;49.20
46752;DHT22;32497;48.936;9.270;2023-07-08T04:59:22;19.50;49.50
46752;DHT22;32497;48.936;9.270;2023-07-08T05:04:23;19.90;48.60
46752;DHT22;32497;48.936;9.270;2023-07-08T05:09:26;20.30;49.10
46752;DHT22;32497;48.936;9.270;2023-07-08T05:14:27;20.70;47.70
46752;DHT22;32497;48.936;9.270;2023-07-08T05:19:28;21.00;47.50
46752;DHT22;32497;48.936;9.270;2023-07-08T05:24:30;21.30;47.50
46752;DHT22;32497;48.936;9.270;2023-07-08T05:29:31;21.30;47.80
46752;DHT22;32497;48.936;9.270;2023-07-08T05:34:32;20.90;48.00
46752;DHT22;32497;48.936;9.270;2023-07-08T05:39:35;20.90;48.40
46752;DHT22;32497;48.936;9.270;2023-07-08T05:44:36;20.00;54.20
46752;DHT22;32497;48.936;9.270;2023-07-08T05:49:37;19.70;53.80
46752;DHT22;32497;48.936;9.270;2023-07-08T05:54:40;19.60;53.80
46752;DHT22;32497;48.936;9.270;2023-07-08T05:59:42;20.00;52.60
46752;DHT22;32497;48.936;9.270;2023-07-08T06:04:52;21.10;51.20
46752;DHT22;32497;48.936;9.270;2023-07-08T06:10:03;21.40;50.00
46752;DHT22;32497;48.936;9.270;2023-07-08T06:15:10;21.90;49.50
46752;DHT22;32497;48.936;9.270;2023-07-08T06:20:22;22.30;46.90
46752;DHT22;32497;48.936;9.270;2023-07-08T06:25:26;22.70;48.30
46752;DHT22;32497;48.936;9.270;2023-07-08T06:30:31;23.00;48.20
46752;DHT22;32497;48.936;9.270;2023-07-08T06:35:35;24.60;42.60
46752;DHT22;32497;48.936;9.270;2023-07-08T06:40:38;26.30;37.80
46752;DHT22;32497;48.936;9.270;2023-07-08T06:45:40;27.30;37.00
46752;DHT22;32497;48.936;9.270;2023-07-08T06:50:42;27.60;35.60
46752;DHT22;32497;48.936;9.270;2023-07-08T06:55:45;27.80;35.60
46752;DHT22;32497;48.936;9.270;2023-07-08T07:00:47;28.90;34.20
46752;DHT22;32497;48.936;9.270;2023-07-08T07:05:49;29.00;34.30
46752;DHT22;32497;48.936;9.270;2023-07-08T07:10:53;28.50;34.90
46752;DHT22;32497;48.936;9.270;2023-07-08T07:15:55;29.50;34.00
46752;DHT22;32497;48.936;9.270;2023-07-08T07:20:58;30.70;31.80
46752;DHT22;32497;48.936;9.270;2023-07-08T07:26:02;31.00;31.40
46752;DHT22;32497;48.936;9.270;2023-07-08T07:31:03;29.40;31.80
46752;DHT22;32497;48.936;9.270;2023-07-08T07:36:06;27.80;35.70
46752;DHT22;32497;48.936;9.270;2023-07-08T07:41:12;27.90;38.70
46752;DHT22;32497;48.936;9.270;2023-07-08T07:46:16;28.20;35.30
46752;DHT22;32497;48.936;9.270;2023-07-08T07:51:20;29.70;35.00
46752;DHT22;32497;48.936;9.270;2023-07-08T07:56:23;30.20;34.90
46752;DHT22;32497;48.936;9.270;2023-07-08T08:01:25;29.40;34.80
46752;DHT22;32497;48.936;9.270;2023-07-08T08:06:27;28.80;35.60
46752;DHT22;32497;48.936;9.270;2023-07-08T08:11:31;29.60;31.70
46752;DHT22;32497;48.936;9.270;2023-07-08T08:16:32;30.50;34.00
46752;DHT22;32497;48.936;9.270;2023-07-08T08:21:34;31.40;32.80
46752;DHT22;32497;48.936;9.270;2023-07-08T08:26:39;32.10;31.10
46752;DHT22;32497;48.936;9.270;2023-07-08T08:31:41;32.90;27.80
46752;DHT22;32497;48.936;9.270;2023-07-08T08:36:46;32.30;29.40
46752;DHT22;32497;48.936;9.270;2023-07-08T08:41:50;31.70;30.60
46752;DHT22;32497;48.936;9.270;2023-07-08T08:46:56;32.30;29.70
46752;DHT22;32497;48.936;9.270;2023-07-08T08:51:59;32.70;29.30
46752;DHT22;32497;48.936;9.270;2023-07-08T08:57:08;32.70;30.30
46752;DHT22;32497;48.936;9.270;2023-07-08T09:02:25;32.70;29.60
46752;DHT22;32497;48.936;9.270;2023-07-08T09:07:28;32.50;28.20
46752;DHT22;32497;48.936;9.270;2023-07-08T09:12:32;32.30;30.80
46752;DHT22;32497;48.936;9.270;2023-07-08T09:17:34;31.60;32.00
46752;DHT22;32497;48.936;9.270;2023-07-08T09:22:39;32.30;29.60
46752;DHT22;32497;48.936;9.270;2023-07-08T09:27:42;32.50;28.50
46752;DHT22;32497;48.936;9.270;2023-07-08T09:32:43;32.70;29.60
46752;DHT22;32497;48.936;9.270;2023-07-08T09:37:46;33.40;27.00
46752;DHT22;32497;48.936;9.270;2023-07-08T09:42:53;33.70;28.20
46752;DHT22;32497;48.936;9.270;2023-07-08T09:47:56;34.60;27.30
46752;DHT22;32497;48.936;9.270;2023-07-08T09:52:58;34.20;26.10
46752;DHT22;32497;48.936;9.270;2023-07-08T09:58:01;34.00;27.10
46752;DHT22;32497;48.936;9.270;2023-07-08T10:03:05;34.50;28.00
46752;DHT22;32497;48.936;9.270;2023-07-08T10:08:13;34.60;27.80
46752;DHT22;32497;48.936;9.270;2023-07-08T10:13:21;34.50;27.50
46752;DHT22;32497;48.936;9.270;2023-07-08T10:18:27;34.30;26.60
46752;DHT22;32497;48.936;9.270;2023-07-08T10:23:37;34.10;26.10
46752;DHT22;32497;48.936;9.270;2023-07-08T10:28:48;34.20;27.00
46752;DHT22;32497;48.936;9.270;2023-07-08T10:34:21;34.90;26.50
46752;DHT22;32497;48.936;9.270;2023-07-08T10:39:51;34.20;26.20
46752;DHT22;32497;48.936;9.270;2023-07-08T10:45:00;34.90;26.10
46752;DHT22;32497;48.936;9.270;2023-07-08T10:50:19;34.70;26.70
46752;DHT22;32497;48.936;9.270;2023-07-08T10:55:36;35.20;27.70
46752;DHT22;32497;48.936;9.270;2023-07-08T11:00:45;35.20;26.80
46752;DHT22;32497;48.936;9.270;2023-07-08T11:05:55;34.30;28.50
46752;DHT22;32497;48.936;9.270;2023-07-08T11:11:03;34.60;28.60
46752;DHT22;32497;48.936;9.270;2023-07-08T11:16:12;34.70;28.40
46752;DHT22;32497;48.936;9.270;2023-07-08T11:21:19;35.20;26.80
46752;DHT22;32497;48.936;9.270;2023-07-08T11:26:26;34.80;28.90
46752;DHT22;32497;48.936;9.270;2023-07-08T11:31:33;33.60;29.60
46752;DHT22;32497;48.936;9.270;2023-07-08T11:36:35;34.00;29.70
46752;DHT22;32497;48.936;9.270;2023-07-08T11:41:36;34.10;28.90
46752;DHT22;32497;48.936;9.270;2023-07-08T11:46:53;34.30;28.30
46752;DHT22;32497;48.936;9.270;2023-07-08T11:51:56;35.00;28.40
46752;DHT22;32497;48.936;9.270;2023-07-08T11:57:01;35.20;26.70
46752;DHT22;32497;48.936;9.270;2023-07-08T12:02:12;34.70;26.70
46752;DHT22;32497;48.936;9.270;2023-07-08T12:07:16;35.30;27.00
46752;DHT22;32497;48.936;9.270;2023-07-08T12:12:23;35.70;25.10
46752;DHT22;32497;48.936;9.270;2023-07-08T12:17:26;35.60;25.90
46752;DHT22;32497;48.936;9.270;2023-07-08T12:22:27;36.30;25.60
46752;DHT22;32497;48.936;9.270;2023-07-08T12:27:29;34.10;25.50
46752;DHT22;32497;48.936;9.270;2023-07-08T12:32:32;33.70;28.00
46752;DHT22;32497;48.936;9.270;2023-07-08T12:37:33;35.70;25.20
46752;DHT22;32497;48.936;9.270;2023-07-08T12:42:34;36.50;25.60
46752;DHT22;32497;48.936;9.270;2023-07-08T12:47:37;35.30;24.40
46752;DHT22;32497;48.936;9.270;2023-07-08T12:52:39;35.70;23.80
46752;DHT22;32497;48.936;9.270;2023-07-08T12:57:42;36.40;23.80
46752;DHT22;32497;48.936;9.270;2023-07-08T13:02:47;37.10;22.20
46752;DHT22;32497;48.936;9.270;2023-07-08T13:07:51;37.20;23.60
46752;DHT22;32497;48.936;9.270;2023-07-08T13:12:55;38.20;22.50
46752;DHT22;32497;48.936;9.270;2023-07-08T13:17:58;39.20;20.80
46752;DHT22;32497;48.936;9.270;2023-07-08T13:23:01;39.70;19.80
46752;DHT22;32497;48.936;9.270;2023-07-08T13:28:15;39.70;19.60
46752;DHT22;32497;48.936;9.270;2023-07-08T13:33:18;39.60;21.90
46752;DHT22;32497;48.936;9.270;2023-07-08T13:38:23;38.00;22.10
46752;DHT22;32497;48.936;9.270;2023-07-08T13:43:25;38.60;21.60
46752;DHT22;32497;48.936;9.270;2023-07-08T13:48:30;39.50;21.80
46752;DHT22;32497;48.936;9.270;2023-07-08T13:53:42;39.40;21.10
46752;DHT22;32497;48.936;9.270;2023-07-08T13:58:45;40.40;19.70
46752;DHT22;32497;48.936;9.270;2023-07-08T14:03:49;40.30;19.20
46752;DHT22;32497;48.936;9.270;2023-07-08T14:08:56;36.20;23.10
46752;DHT22;32497;48.936;9.270;2023-07-08T14:13:57;37.70;21.30
46752;DHT22;32497;48.936;9.270;2023-07-08T14:19:02;36.90;21.80
46752;DHT22;32497;48.936;9.270;2023-07-08T14:24:10;38.10;21.70
46752;DHT22;32497;48.936;9.270;2023-07-08T14:29:11;38.20;22.10
46752;DHT22;32497;48.936;9.270;2023-07-08T14:34:19;39.40;19.70
46752;DHT22;32497;48.936;9.270;2023-07-08T14:39:21;38.70;20.40
46752;DHT22;32497;48.936;9.270;2023-07-08T14:44:25;38.70;19.80
46752;DHT22;32497;48.936;9.270;2023-07-08T14:49:28;36.40;22.00
46752;DHT22;32497;48.936;9.270;2023-07-08T14:54:31;35.20;23.10
46752;DHT22;32497;48.936;9.270;2023-07-08T14:59:33;35.10;23.90
46752;DHT22;32497;48.936;9.270;2023-07-08T15:04:36;35.40;24.20
46752;DHT22;32497;48.936;9.270;2023-07-08T15:09:37;35.20;24.60
46752;DHT22;32497;48.936;9.270;2023-07-08T15:14:39;35.50;24.30
46752;DHT22;32497;48.936;9.270;2023-07-08T15:19:42;34.40;24.90
46752;DHT22;32497;48.936;9.270;2023-07-08T15:24:43;34.00;25.90
46752;DHT22;32497;48.936;9.270;2023-07-08T15:29:44;33.70;25.50
46752;DHT22;32497;48.936;9.270;2023-07-08T15:34:46;34.40;25.50
46752;DHT22;32497;48.936;9.270;2023-07-08T15:39:48;34.60;26.80
46752;DHT22;32497;48.936;9.270;2023-07-08T15:44:49;34.30;25.10
46752;DHT22;32497;48.936;9.270;2023-07-08T15:49:51;35.30;23.90
46752;DHT22;32497;48.936;9.270;2023-07-08T15:54:52;36.20;24.20
46752;DHT22;32497;48.936;9.270;2023-07-08T15:59:53;35.70;23.00
46752;DHT22;32497;48.936;9.270;2023-07-08T16:04:56;36.30;25.10
46752;DHT22;32497;48.936;9.270;2023-07-08T16:09:57;37.60;23.40
46752;DHT22;32497;48.936;9.270;2023-07-08T16:14:58;37.00;22.40
46752;DHT22;32497;48.936;9.270;2023-07-08T16:20:01;36.50;23.00
46752;DHT22;32497;48.936;9.270;2023-07-08T16:25:02;36.30;23.10
46752;DHT22;32497;48.936;9.270;2023-07-08T16:30:04;35.90;23.40
46752;DHT22;32497;48.936;9.270;2023-07-08T16:35:07;35.60;24.70
46752;DHT22;32497;48.936;9.270;2023-07-08T16:40:14;36.00;25.60
46752;DHT22;32497;48.936;9.270;2023-07-08T16:45:18;35.80;23.70
46752;DHT22;32497;48.936;9.270;2023-07-08T16:50:25;35.60;24.10
46752;DHT22;32497;48.936;9.270;2023-07-08T16:55:26;35.50;25.30
46752;DHT22;32497;48.936;9.270;2023-07-08T17:00:27;35.50;24.90
46752;DHT22;32497;48.936;9.270;2023-07-08T17:05:32;34.70;25.70
46752;DHT22;32497;48.936;9.270;2023-07-08T17:10:34;34.70;25.90
46752;DHT22;32497;48.936;9.270;2023-07-08T17:15:36;34.30;26.60
46752;DHT22;32497;48.936;9.270;2023-07-08T17:20:39;34.00;26.30
46752;DHT22;32497;48.936;9.270;2023-07-08T17:25:40;33.60;26.60
46752;DHT22;32497;48.936;9.270;2023-07-08T17:30:43;33.80;27.40
46752;DHT22;32497;48.936;9.270;2023-07-08T17:35:46;33.50;28.30
46752;DHT22;32497;48.936;9.270;2023-07-08T17:40:47;33.30;29.00
46752;DHT22;32497;48.936;9.270;2023-07-08T17:51:02;32.90;28.90
46752;DHT22;32497;48.936;9.270;2023-07-08T17:56:03;32.60;28.50
46752;DHT22;32497;48.936;9.270;2023-07-08T18:01:08;32.20;29.20
46752;DHT22;32497;48.936;9.270;2023-07-08T18:06:10;32.30;30.70
46752;DHT22;32497;48.936;9.270;2023-07-08T18:11:12;32.40;31.60
46752;DHT22;32497;48.936;9.270;2023-07-08T18:16:15;32.20;32.80
46752;DHT22;32497;48.936;9.270;2023-07-08T18:21:20;31.90;33.50
46752;DHT22;32497;48.936;9.270;2023-07-08T18:26:22;31.60;32.50
46752;DHT22;32497;48.936;9.270;2023-07-08T18:31:27;31.20;34.40
46752;DHT22;32497;48.936;9.270;2023-07-08T18:36:31;30.90;35.70
46752;DHT22;32497;48.936;9.270;2023-07-08T18:41:38;30.70;36.40
46752;DHT22;32497;48.936;9.270;2023-07-08T18:46:40;30.20;34.40
46752;DHT22;32497;48.936;9.270;2023-07-08T18:51:43;30.00;35.00
46752;DHT22;32497;48.936;9.270;2023-07-08T18:56:45;29.80;36.40
46752;DHT22;32497;48.936;9.270;2023-07-08T19:01:47;29.50;36.20
46752;DHT22;32497;48.936;9.270;2023-07-08T19:06:51;29.20;36.20
46752;DHT22;32497;48.936;9.270;2023-07-08T19:11:53;29.00;36.40
46752;DHT22;32497;48.936;9.270;2023-07-08T19:16:54;28.80;37.90
46752;DHT22;32497;48.936;9.270;2023-07-08T19:21:57;28.40;38.60
46752;DHT22;32497;48.936;9.270;2023-07-08T19:26:58;28.20;38.70
46752;DHT22;32497;48.936;9.270;2023-07-08T19:31:59;28.10;38.80
46752;DHT22;32497;48.936;9.270;2023-07-08T19:37:02;27.80;40.20
46752;DHT22;32497;48.936;9.270;2023-07-08T19:42:04;27.50;40.60
46752;DHT22;32497;48.936;9.270;2023-07-08T19:47:09;27.40;40.10
46752;DHT22;32497;48.936;9.270;2023-07-08T19:52:11;27.20;42.00
46752;DHT22;32497;48.936;9.270;2023-07-08T19:57:12;27.10;43.60
46752;DHT22;32497;48.936;9.270;2023-07-08T20:02:13;26.90;45.30
46752;DHT22;32497;48.936;9.270;2023-07-08T20:07:16;26.80;46.40
46752;DHT22;32497;48.936;9.270;2023-07-08T20:12:17;26.60;43.80
46752;DHT22;32497;48.936;9.270;2023-07-08T20:17:19;26.50;46.30
46752;DHT22;32497;48.936;9.270;2023-07-08T20:22:22;26.40;47.20
46752;DHT22;32497;48.936;9.270;2023-07-08T20:27:24;26.30;46.10
46752;DHT22;32497;48.936;9.270;2023-07-08T20:32:26;26.20;47.00
46752;DHT22;32497;48.936;9.270;2023-07-08T20:37:28;26.10;48.50
46752;DHT22;32497;48.936;9.270;2023-07-08T20:42:29;26.00;44.80
46752;DHT22;32497;48.936;9.270;2023-07-08T20:47:30;26.00;43.50
46752;DHT22;32497;48.936;9.270;2023-07-08T20:52:33;26.20;43.10
46752;DHT22;32497;48.936;9.270;2023-07-08T20:57:34;26.20;43.90
46752;DHT22;32497;48.936;9.270;2023-07-08T21:02:35;26.10;45.60
46752;DHT22;32497;48.936;9.270;2023-07-08T21:07:37;26.10;45.90
46752;DHT22;32497;48.936;9.270;2023-07-08T21:12:39;25.90;44.10
46752;DHT22;32497;48.936;9.270;2023-07-08T21:17:40;25.80;44.50
46752;DHT22;32497;48.936;9.270;2023-07-08T21:22:43;25.70;46.30
46752;DHT22;32497;48.936;9.270;2023-07-08T21:27:45;25.30;44.60
46752;DHT22;32497;48.936;9.270;2023-07-08T21:32:47;25.40;45.60
46752;DHT22;32497;48.936;9.270;2023-07-08T21:37:51;25.10;47.50
46752;DHT22;32497;48.936;9.270;2023-07-08T21:42:54;24.70;48.50
46752;DHT22;32497;48.936;9.270;2023-07-08T21:47:55;24.50;49.80
46752;DHT22;32497;48.936;9.270;2023-07-08T21:53:00;24.40;48.50
46752;DHT22;32497;48.936;9.270;2023-07-08T21:58:02;24.60;47.90
46752;DHT22;32497;48.936;9.270;2023-07-08T22:03:07;24.80;47.50
46752;DHT22;32497;48.936;9.270;2023-07-08T22:08:14;24.70;47.40
46752;DHT22;32497;48.936;9.270;2023-07-08T22:13:24;24.60;47.60
46752;DHT22;32497;48.936;9.270;2023-07-08T22:18:26;24.70;47.10
46752;DHT22;32497;48.936;9.270;2023-07-08T22:23:29;24.90;46.30
46752;DHT22;32497;48.936;9.270;2023-07-08T22:28:30;25.00;46.10
46752;DHT22;32497;48.936;9.270;2023-07-08T22:33:31;25.00;46.70
46752;DHT22;32497;48.936;9.270;2023-07-08T22:38:34;24.70;50.30
46752;DHT22;32497;48.936;9.270;2023-07-08T22:43:35;24.30;51.00
46752;DHT22;32497;48.936;9.270;2023-07-08T22:48:36;24.20;49.10
46752;DHT22;32497;48.936;9.270;2023-07-08T22:53:39;23.90;50.10
46752;DHT22;32497;48.936;9.270;2023-07-08T22:58:41;23.80;50.90
46752;DHT22;32497;48.936;9.270;2023-07-08T23:03:42;23.70;53.10
46752;DHT22;32497;48.936;9.270;2023-07-08T23:08:45;23.60;54.90
46752;DHT22;32497;48.936;9.270;2023-07-08T23:13:46;23.60;53.70
46752;DHT22;32497;48.936;9.270;2023-07-08T23:18:49;23.40;54.10
46752;DHT22;32497;48.936;9.270;2023-07-08T23:23:52;23.30;54.40
46752;DHT22;32497;48.936;9.270;2023-07-08T23:28:55;23.20;54.10
46752;DHT22;32497;48.936;9.270;2023-07-08T23:33:57;22.90;54.70
46752;DHT22;32497;48.936;9.270;2023-07-08T23:39:01;22.50;56.40
46752;DHT22;32497;48.936;9.270;2023-07-08T23:44:02;22.40;57.30
46752;DHT22;32497;48.936;9.270;2023-07-08T23:49:16;22.30;57.10
46752;DHT22;32497;48.936;9.270;2023-07-08T23:54:26;22.20;58.00
46752;DHT22;32497;48.936;9.270;2023-07-08T23:59:29;22.00;58.80
